createdAt,value
2022-12-25T00:00:20.236Z,1009.62
2022-12-25T00:01:14.305Z,1009.66
2022-12-25T00:02:13.307Z,1009.65
2022-12-25T00:03:13.418Z,1009.65
2022-12-25T00:04:13.292Z,1009.69
2022-12-25T00:05:13.260Z,1009.69
2022-12-25T00:06:13.262Z,1009.70
2022-12-25T00:07:13.257Z,1009.71
2022-12-25T00:08:13.243Z,1009.70
2022-12-25T00:09:13.217Z,1009.61
2022-12-25T00:10:13.206Z,1009.64
2022-12-25T00:11:13.217Z,1009.62
2022-12-25T00:12:13.288Z,1009.62
2022-12-25T00:13:13.217Z,1009.67
2022-12-25T00:14:13.199Z,1009.67
2022-12-25T00:15:13.149Z,1009.69
2022-12-25T00:16:13.227Z,1009.69
2022-12-25T00:17:13.132Z,1009.69
2022-12-25T00:18:13.112Z,1009.71
2022-12-25T00:19:13.120Z,1009.66
2022-12-25T00:20:13.129Z,1009.69
2022-12-25T00:21:13.097Z,1009.70
2022-12-25T00:22:13.187Z,1009.69
2022-12-25T00:23:13.067Z,1009.65
2022-12-25T00:24:13.063Z,1009.67
2022-12-25T00:25:13.061Z,1009.66
2022-12-25T00:26:13.073Z,1009.64
2022-12-25T00:27:13.020Z,1009.63
2022-12-25T00:28:13.044Z,1009.66
2022-12-25T00:29:13.041Z,1009.69
2022-12-25T00:30:13.303Z,1009.68
2022-12-25T00:31:13.035Z,1009.67
2022-12-25T00:32:13.055Z,1009.66
2022-12-25T00:33:12.961Z,1009.59
2022-12-25T00:34:12.999Z,1009.60
2022-12-25T00:35:12.961Z,1009.60
2022-12-25T00:36:12.972Z,1009.59
2022-12-25T00:37:12.932Z,1009.62
2022-12-25T00:38:12.914Z,1009.66
2022-12-25T00:39:12.923Z,1009.68
2022-12-25T00:40:12.948Z,1009.65
2022-12-25T00:41:12.945Z,1009.66
2022-12-25T00:42:12.985Z,1009.63
2022-12-25T00:43:12.852Z,1009.64
2022-12-25T00:44:12.998Z,1009.59
2022-12-25T00:45:14.252Z,1009.58
2022-12-25T00:46:13.141Z,1009.60
2022-12-25T00:47:12.897Z,1009.59
2022-12-25T00:48:12.792Z,1009.60
2022-12-25T00:49:12.812Z,1009.62
2022-12-25T00:50:12.806Z,1009.63
2022-12-25T00:51:12.767Z,1009.67
2022-12-25T00:52:12.768Z,1009.68
2022-12-25T00:53:12.737Z,1009.71
2022-12-25T00:54:12.773Z,1009.70
2022-12-25T00:55:12.727Z,1009.68
2022-12-25T00:56:12.723Z,1009.70
2022-12-25T00:57:12.729Z,1009.66
2022-12-25T00:58:12.755Z,1009.67
2022-12-25T00:59:12.689Z,1009.66
2022-12-25T01:00:12.656Z,1009.68
2022-12-25T01:01:12.700Z,1009.67
2022-12-25T01:02:12.865Z,1009.69
2022-12-25T01:03:12.690Z,1009.70
2022-12-25T01:04:12.712Z,1009.67
2022-12-25T01:05:12.639Z,1009.68
2022-12-25T01:06:12.669Z,1009.63
2022-12-25T01:07:12.607Z,1009.60
2022-12-25T01:08:12.646Z,1009.64
2022-12-25T01:09:12.569Z,1009.63
2022-12-25T01:10:12.563Z,1009.60
2022-12-25T01:11:12.548Z,1009.58
2022-12-25T01:12:12.676Z,1009.62
2022-12-25T01:13:12.544Z,1009.63
2022-12-25T01:14:12.620Z,1009.66
2022-12-25T01:15:12.512Z,1009.66
2022-12-25T01:16:12.552Z,1009.65
2022-12-25T01:17:12.627Z,1009.68
2022-12-25T01:18:13.104Z,1009.71
2022-12-25T01:19:12.840Z,1009.73
2022-12-25T01:20:12.554Z,1009.77
2022-12-25T01:21:12.426Z,1009.77
2022-12-25T01:22:12.490Z,1009.81
2022-12-25T01:23:12.409Z,1009.79
2022-12-25T01:24:12.448Z,1009.80
2022-12-25T01:25:12.412Z,1009.78
2022-12-25T01:26:12.475Z,1009.78
2022-12-25T01:27:12.424Z,1009.77
2022-12-25T01:28:12.439Z,1009.74
2022-12-25T01:29:12.365Z,1009.72
2022-12-25T01:30:12.348Z,1009.70
2022-12-25T01:31:12.378Z,1009.71
2022-12-25T01:32:12.344Z,1009.70
2022-12-25T01:33:12.299Z,1009.65
2022-12-25T01:34:12.373Z,1009.69
2022-12-25T01:35:12.360Z,1009.64
2022-12-25T01:36:12.284Z,1009.63
2022-12-25T01:37:12.270Z,1009.67
2022-12-25T01:38:12.263Z,1009.69
2022-12-25T01:39:12.272Z,1009.68
2022-12-25T01:40:12.289Z,1009.69
2022-12-25T01:41:12.228Z,1009.69
2022-12-25T01:42:12.202Z,1009.66
2022-12-25T01:43:17.049Z,1009.66
2022-12-25T01:44:13.768Z,1009.60
2022-12-25T01:45:12.172Z,1009.60
2022-12-25T01:46:12.191Z,1009.65
2022-12-25T01:47:12.161Z,1009.69
2022-12-25T01:48:12.195Z,1009.70
2022-12-25T01:49:12.135Z,1009.73
2022-12-25T01:50:12.162Z,1009.77
2022-12-25T01:51:12.111Z,1009.76
2022-12-25T01:52:12.092Z,1009.75
2022-12-25T01:53:12.106Z,1009.75
2022-12-25T01:54:12.161Z,1009.74
2022-12-25T01:55:12.102Z,1009.73
2022-12-25T01:56:12.063Z,1009.68
2022-12-25T01:57:12.045Z,1009.72
2022-12-25T01:58:12.044Z,1009.73
2022-12-25T01:59:12.038Z,1009.71
2022-12-25T02:00:12.309Z,1009.76
2022-12-25T02:01:12.058Z,1009.78
2022-12-25T02:02:12.223Z,1009.76
2022-12-25T02:03:12.065Z,1009.74
2022-12-25T02:04:11.981Z,1009.76
2022-12-25T02:05:11.996Z,1009.76
2022-12-25T02:06:11.965Z,1009.77
2022-12-25T02:07:11.937Z,1009.78
2022-12-25T02:08:12.110Z,1009.78
2022-12-25T02:09:11.905Z,1009.78
2022-12-25T02:10:11.944Z,1009.84
2022-12-25T02:11:11.918Z,1009.86
2022-12-25T02:12:11.900Z,1009.85
2022-12-25T02:13:11.879Z,1009.85
2022-12-25T02:14:11.955Z,1009.84
2022-12-25T02:15:11.869Z,1009.82
2022-12-25T02:16:11.943Z,1009.83
2022-12-25T02:17:11.857Z,1009.77
2022-12-25T02:18:11.818Z,1009.78
2022-12-25T02:19:11.802Z,1009.78
2022-12-25T02:20:11.822Z,1009.79
2022-12-25T02:21:11.793Z,1009.79
2022-12-25T02:22:11.838Z,1009.83
2022-12-25T02:23:11.790Z,1009.83
2022-12-25T02:24:11.855Z,1009.82
2022-12-25T02:25:11.750Z,1009.80
2022-12-25T02:26:11.749Z,1009.83
2022-12-25T02:27:11.709Z,1009.80
2022-12-25T02:28:11.728Z,1009.80
2022-12-25T02:29:11.718Z,1009.81
2022-12-25T02:30:11.803Z,1009.85
2022-12-25T02:31:11.673Z,1009.84
2022-12-25T02:32:11.699Z,1009.82
2022-12-25T02:33:11.650Z,1009.84
2022-12-25T02:34:11.671Z,1009.83
2022-12-25T02:35:11.651Z,1009.82
2022-12-25T02:36:11.635Z,1009.80
2022-12-25T02:37:11.618Z,1009.82
2022-12-25T02:38:11.629Z,1009.77
2022-12-25T02:39:11.592Z,1009.82
2022-12-25T02:40:11.613Z,1009.87
2022-12-25T02:41:11.583Z,1009.88
2022-12-25T02:42:11.587Z,1009.87
2022-12-25T02:43:11.554Z,1009.86
2022-12-25T02:44:11.693Z,1009.82
2022-12-25T02:45:11.540Z,1009.86
2022-12-25T02:46:11.604Z,1009.84
2022-12-25T02:47:11.515Z,1009.86
2022-12-25T02:48:11.516Z,1009.87
2022-12-25T02:49:11.494Z,1009.88
2022-12-25T02:50:11.844Z,1009.87
2022-12-25T02:51:11.466Z,1009.88
2022-12-25T02:52:11.475Z,1009.85
2022-12-25T02:53:11.448Z,1009.84
2022-12-25T02:54:11.453Z,1009.81
2022-12-25T02:55:11.435Z,1009.78
2022-12-25T02:56:11.446Z,1009.81
2022-12-25T02:57:11.407Z,1009.80
2022-12-25T02:58:11.427Z,1009.79
2022-12-25T02:59:11.403Z,1009.79
2022-12-25T03:00:11.455Z,1009.77
2022-12-25T03:01:11.376Z,1009.78
2022-12-25T03:02:11.442Z,1009.80
2022-12-25T03:03:11.425Z,1009.80
2022-12-25T03:04:11.378Z,1009.82
2022-12-25T03:05:11.359Z,1009.78
2022-12-25T03:06:11.418Z,1009.80
2022-12-25T03:07:11.328Z,1009.87
2022-12-25T03:08:11.414Z,1009.89
2022-12-25T03:09:11.567Z,1009.91
2022-12-25T03:10:11.313Z,1009.90
2022-12-25T03:11:11.303Z,1009.94
2022-12-25T03:12:11.587Z,1009.90
2022-12-25T03:13:11.240Z,1009.86
2022-12-25T03:14:11.349Z,1009.88
2022-12-25T03:15:11.241Z,1009.83
2022-12-25T03:16:11.252Z,1009.80
2022-12-25T03:17:11.262Z,1009.78
2022-12-25T03:18:11.176Z,1009.77
2022-12-25T03:19:11.174Z,1009.75
2022-12-25T03:20:11.185Z,1009.69
2022-12-25T03:21:11.171Z,1009.71
2022-12-25T03:22:11.190Z,1009.66
2022-12-25T03:23:11.151Z,1009.66
2022-12-25T03:24:11.145Z,1009.62
2022-12-25T03:25:11.111Z,1009.64
2022-12-25T03:26:11.112Z,1009.65
2022-12-25T03:27:11.084Z,1009.65
2022-12-25T03:28:11.088Z,1009.66
2022-12-25T03:29:11.074Z,1009.60
2022-12-25T03:30:11.046Z,1009.66
2022-12-25T03:31:11.136Z,1009.65
2022-12-25T03:32:11.082Z,1009.66
2022-12-25T03:33:36.769Z,1009.65
2022-12-25T03:34:12.043Z,1009.58
2022-12-25T03:35:11.015Z,1009.56
2022-12-25T03:36:11.137Z,1009.54
2022-12-25T03:37:10.992Z,1009.50
2022-12-25T03:38:11.029Z,1009.47
2022-12-25T03:39:10.954Z,1009.43
2022-12-25T03:40:10.978Z,1009.38
2022-12-25T03:41:10.962Z,1009.39
2022-12-25T03:42:11.006Z,1009.41
2022-12-25T03:43:10.915Z,1009.43
2022-12-25T03:44:10.937Z,1009.44
2022-12-25T03:45:10.900Z,1009.44
2022-12-25T03:46:11.013Z,1009.42
2022-12-25T03:47:10.878Z,1009.39
2022-12-25T03:48:10.907Z,1009.35
2022-12-25T03:49:10.849Z,1009.29
2022-12-25T03:50:10.927Z,1009.32
2022-12-25T03:51:10.845Z,1009.27
2022-12-25T03:52:10.902Z,1009.27
2022-12-25T03:53:10.808Z,1009.28
2022-12-25T03:54:10.834Z,1009.29
2022-12-25T03:55:10.813Z,1009.26
2022-12-25T03:56:10.923Z,1009.26
2022-12-25T03:57:10.767Z,1009.23
2022-12-25T03:58:10.775Z,1009.30
2022-12-25T03:59:10.746Z,1009.26
2022-12-25T04:00:10.801Z,1009.23
2022-12-25T04:01:10.766Z,1009.24
2022-12-25T04:02:11.067Z,1009.18
2022-12-25T04:03:10.765Z,1009.20
2022-12-25T04:04:10.720Z,1009.15
2022-12-25T04:05:10.679Z,1009.15
2022-12-25T04:06:10.690Z,1009.14
2022-12-25T04:07:10.651Z,1009.17
2022-12-25T04:08:10.819Z,1009.15
2022-12-25T04:09:10.640Z,1009.16
2022-12-25T04:10:10.738Z,1009.19
2022-12-25T04:11:10.630Z,1009.19
2022-12-25T04:12:10.657Z,1009.27
2022-12-25T04:13:10.590Z,1009.29
2022-12-25T04:14:10.681Z,1009.24
2022-12-25T04:15:10.579Z,1009.20
2022-12-25T04:16:10.679Z,1009.17
2022-12-25T04:17:10.554Z,1009.12
2022-12-25T04:18:10.689Z,1009.14
2022-12-25T04:19:10.541Z,1009.17
2022-12-25T04:20:10.613Z,1009.19
2022-12-25T04:21:10.521Z,1009.22
2022-12-25T04:22:10.533Z,1009.23
2022-12-25T04:23:10.501Z,1009.24
2022-12-25T04:24:10.511Z,1009.26
2022-12-25T04:25:10.485Z,1009.22
2022-12-25T04:26:10.525Z,1009.26
2022-12-25T04:27:10.444Z,1009.24
2022-12-25T04:28:10.483Z,1009.27
2022-12-25T04:29:10.427Z,1009.30
2022-12-25T04:30:10.486Z,1009.28
2022-12-25T04:31:10.470Z,1009.34
2022-12-25T04:32:10.510Z,1009.34
2022-12-25T04:33:10.404Z,1009.35
2022-12-25T04:34:10.415Z,1009.38
2022-12-25T04:35:10.369Z,1009.35
2022-12-25T04:36:10.425Z,1009.38
2022-12-25T04:37:10.345Z,1009.35
2022-12-25T04:38:10.389Z,1009.37
2022-12-25T04:39:10.317Z,1009.36
2022-12-25T04:40:10.327Z,1009.38
2022-12-25T04:41:10.325Z,1009.44
2022-12-25T04:42:10.295Z,1009.50
2022-12-25T04:43:10.279Z,1009.48
2022-12-25T04:44:10.267Z,1009.49
2022-12-25T04:45:10.260Z,1009.47
2022-12-25T04:46:10.491Z,1009.50
2022-12-25T04:47:11.756Z,1009.48
2022-12-25T04:48:10.255Z,1009.45
2022-12-25T04:49:10.223Z,1009.44
2022-12-25T04:50:10.208Z,1009.46
2022-12-25T04:51:10.228Z,1009.43
2022-12-25T04:52:10.198Z,1009.46
2022-12-25T04:53:10.169Z,1009.43
2022-12-25T04:54:10.223Z,1009.40
2022-12-25T04:55:10.151Z,1009.38
2022-12-25T04:56:10.171Z,1009.37
2022-12-25T04:57:10.133Z,1009.38
2022-12-25T04:58:10.126Z,1009.30
2022-12-25T04:59:10.132Z,1009.27
2022-12-25T05:00:10.170Z,1009.23
2022-12-25T05:01:10.112Z,1009.22
2022-12-25T05:02:10.337Z,1009.20
2022-12-25T05:03:10.196Z,1009.19
2022-12-25T05:04:10.180Z,1009.17
2022-12-25T05:05:10.060Z,1009.21
2022-12-25T05:06:10.135Z,1009.26
2022-12-25T05:07:10.042Z,1009.30
2022-12-25T05:08:10.043Z,1009.30
2022-12-25T05:09:10.003Z,1009.34
2022-12-25T05:10:10.427Z,1009.33
2022-12-25T05:11:10.005Z,1009.24
2022-12-25T05:12:09.996Z,1009.28
2022-12-25T05:13:09.974Z,1009.22
2022-12-25T05:14:10.028Z,1009.20
2022-12-25T05:15:09.944Z,1009.10
2022-12-25T05:16:10.030Z,1009.06
2022-12-25T05:17:09.942Z,1009.01
2022-12-25T05:18:09.913Z,1009.00
2022-12-25T05:19:09.909Z,1008.99
2022-12-25T05:20:09.969Z,1008.95
2022-12-25T05:21:09.884Z,1008.96
2022-12-25T05:22:10.074Z,1009.02
2022-12-25T05:23:09.866Z,1008.95
2022-12-25T05:24:09.896Z,1008.93
2022-12-25T05:25:09.842Z,1008.94
2022-12-25T05:26:09.863Z,1008.91
2022-12-25T05:27:09.825Z,1008.98
2022-12-25T05:28:09.876Z,1008.94
2022-12-25T05:29:09.803Z,1008.95
2022-12-25T05:30:09.826Z,1008.95
2022-12-25T05:31:09.933Z,1008.93
2022-12-25T05:32:09.907Z,1008.92
2022-12-25T05:33:09.801Z,1008.99
2022-12-25T05:34:09.850Z,1008.96
2022-12-25T05:35:09.736Z,1008.91
2022-12-25T05:36:09.722Z,1008.94
2022-12-25T05:37:09.737Z,1008.93
2022-12-25T05:38:09.711Z,1008.91
2022-12-25T05:39:09.708Z,1008.85
2022-12-25T05:40:09.735Z,1008.86
2022-12-25T05:41:09.668Z,1008.85
2022-12-25T05:42:09.668Z,1008.82
2022-12-25T05:43:09.671Z,1008.78
2022-12-25T05:44:09.636Z,1008.79
2022-12-25T05:45:09.627Z,1008.75
2022-12-25T05:46:09.847Z,1008.76
2022-12-25T05:47:09.719Z,1008.75
2022-12-25T05:48:09.752Z,1008.72
2022-12-25T05:49:09.589Z,1008.67
2022-12-25T05:50:09.620Z,1008.62
2022-12-25T05:51:09.578Z,1008.65
2022-12-25T05:52:09.578Z,1008.60
2022-12-25T05:53:09.550Z,1008.63
2022-12-25T05:54:09.664Z,1008.59
2022-12-25T05:55:09.531Z,1008.63
2022-12-25T05:56:09.663Z,1008.67
2022-12-25T05:57:09.514Z,1008.66
2022-12-25T05:58:09.548Z,1008.71
2022-12-25T05:59:09.484Z,1008.67
2022-12-25T06:00:09.482Z,1008.64
2022-12-25T06:01:09.469Z,1008.66
2022-12-25T06:02:09.607Z,1008.70
2022-12-25T06:03:09.559Z,1008.66
2022-12-25T06:04:12.761Z,1008.63
2022-12-25T06:05:09.421Z,1008.67
2022-12-25T06:06:09.441Z,1008.63
2022-12-25T06:07:09.443Z,1008.65
2022-12-25T06:08:09.434Z,1008.65
2022-12-25T06:09:09.371Z,1008.67
2022-12-25T06:10:09.533Z,1008.66
2022-12-25T06:11:09.353Z,1008.64
2022-12-25T06:12:09.437Z,1008.61
2022-12-25T06:13:09.342Z,1008.59
2022-12-25T06:14:09.353Z,1008.54
2022-12-25T06:15:09.302Z,1008.51
2022-12-25T06:16:09.550Z,1008.51
2022-12-25T06:17:09.307Z,1008.54
2022-12-25T06:18:09.291Z,1008.54
2022-12-25T06:19:09.269Z,1008.57
2022-12-25T06:20:09.300Z,1008.58
2022-12-25T06:21:09.260Z,1008.60
2022-12-25T06:22:09.341Z,1008.59
2022-12-25T06:23:09.264Z,1008.54
2022-12-25T06:24:09.346Z,1008.47
2022-12-25T06:25:09.204Z,1008.47
2022-12-25T06:26:09.308Z,1008.46
2022-12-25T06:27:09.197Z,1008.46
2022-12-25T06:28:09.255Z,1008.45
2022-12-25T06:29:09.155Z,1008.46
2022-12-25T06:30:09.183Z,1008.46
2022-12-25T06:31:09.265Z,1008.46
2022-12-25T06:32:09.254Z,1008.43
2022-12-25T06:33:09.106Z,1008.34
2022-12-25T06:34:09.096Z,1008.31
2022-12-25T06:35:09.108Z,1008.27
2022-12-25T06:36:09.118Z,1008.25
2022-12-25T06:37:09.076Z,1008.26
2022-12-25T06:38:09.114Z,1008.23
2022-12-25T06:39:09.056Z,1008.23
2022-12-25T06:40:09.075Z,1008.24
2022-12-25T06:41:09.039Z,1008.17
2022-12-25T06:42:09.027Z,1008.16
2022-12-25T06:43:09.014Z,1008.21
2022-12-25T06:44:09.082Z,1008.21
2022-12-25T06:45:08.979Z,1008.12
2022-12-25T06:46:09.096Z,1008.10
2022-12-25T06:47:08.987Z,1008.06
2022-12-25T06:48:09.040Z,1008.06
2022-12-25T06:49:08.940Z,1008.06
2022-12-25T06:50:08.956Z,1008.03
2022-12-25T06:51:09.041Z,1008.03
2022-12-25T06:52:08.938Z,1008.00
2022-12-25T06:53:08.900Z,1007.97
2022-12-25T06:54:08.971Z,1007.97
2022-12-25T06:55:08.886Z,1007.95
2022-12-25T06:56:08.942Z,1007.92
2022-12-25T06:57:08.856Z,1007.98
2022-12-25T06:58:08.948Z,1007.98
2022-12-25T06:59:08.839Z,1007.98
2022-12-25T07:00:08.861Z,1008.01
2022-12-25T07:01:08.881Z,1008.03
2022-12-25T07:02:08.879Z,1008.03
2022-12-25T07:03:08.879Z,1008.01
2022-12-25T07:04:08.823Z,1007.94
2022-12-25T07:05:08.770Z,1007.88
2022-12-25T07:06:08.817Z,1007.85
2022-12-25T07:07:09.639Z,1007.78
2022-12-25T07:08:08.768Z,1007.73
2022-12-25T07:09:08.732Z,1007.71
2022-12-25T07:10:08.742Z,1007.67
2022-12-25T07:11:08.700Z,1007.63
2022-12-25T07:12:08.782Z,1007.63
2022-12-25T07:13:08.693Z,1007.62
2022-12-25T07:14:08.859Z,1007.57
2022-12-25T07:15:08.658Z,1007.64
2022-12-25T07:16:08.733Z,1007.63
2022-12-25T07:17:08.649Z,1007.60
2022-12-25T07:18:08.917Z,1007.54
2022-12-25T07:19:08.617Z,1007.50
2022-12-25T07:20:08.713Z,1007.42
2022-12-25T07:21:08.601Z,1007.30
2022-12-25T07:22:08.681Z,1007.25
2022-12-25T07:23:08.585Z,1007.40
2022-12-25T07:24:08.885Z,1007.52
2022-12-25T07:25:08.568Z,1007.57
2022-12-25T07:26:08.568Z,1007.58
2022-12-25T07:27:08.555Z,1007.55
2022-12-25T07:28:08.579Z,1007.61
2022-12-25T07:29:08.512Z,1007.55
2022-12-25T07:30:08.524Z,1007.54
2022-12-25T07:31:08.500Z,1007.50
2022-12-25T07:32:08.643Z,1007.48
2022-12-25T07:33:08.479Z,1007.46
2022-12-25T07:34:08.505Z,1007.49
2022-12-25T07:35:08.447Z,1007.54
2022-12-25T07:36:12.489Z,1007.52
2022-12-25T07:37:08.429Z,1007.47
2022-12-25T07:38:08.464Z,1007.49
2022-12-25T07:39:08.405Z,1007.42
2022-12-25T07:40:08.656Z,1007.48
2022-12-25T07:41:08.379Z,1007.51
2022-12-25T07:42:08.474Z,1007.52
2022-12-25T07:43:08.382Z,1007.57
2022-12-25T07:44:08.392Z,1007.59
2022-12-25T07:45:08.338Z,1007.68
2022-12-25T07:46:08.501Z,1007.66
2022-12-25T07:47:08.344Z,1007.73
2022-12-25T07:48:13.373Z,1007.76
2022-12-25T07:49:09.299Z,1007.80
2022-12-25T07:50:08.349Z,1007.79
2022-12-25T07:51:08.338Z,1007.77
2022-12-25T07:52:08.371Z,1007.77
2022-12-25T07:53:08.264Z,1007.77
2022-12-25T07:54:08.320Z,1007.78
2022-12-25T07:55:08.239Z,1007.81
2022-12-25T07:56:08.246Z,1007.84
2022-12-25T07:57:08.225Z,1007.89
2022-12-25T07:58:08.295Z,1007.87
2022-12-25T07:59:08.189Z,1007.79
2022-12-25T08:00:08.340Z,1007.70
2022-12-25T08:01:08.287Z,1007.68
2022-12-25T08:02:08.419Z,1007.67
2022-12-25T08:03:08.530Z,1007.66
2022-12-25T08:04:08.276Z,1007.59
2022-12-25T08:05:08.137Z,1007.61
2022-12-25T08:06:08.231Z,1007.54
2022-12-25T08:07:08.113Z,1007.51
2022-12-25T08:08:08.100Z,1007.55
2022-12-25T08:09:08.112Z,1007.55
2022-12-25T08:10:08.119Z,1007.52
2022-12-25T08:11:08.063Z,1007.52
2022-12-25T08:12:08.105Z,1007.51
2022-12-25T08:13:14.229Z,1007.46
2022-12-25T08:14:09.154Z,1007.41
2022-12-25T08:15:08.023Z,1007.31
2022-12-25T08:16:08.031Z,1007.30
2022-12-25T08:17:08.099Z,1007.30
2022-12-25T08:18:08.089Z,1007.26
2022-12-25T08:19:07.998Z,1007.32
2022-12-25T08:20:08.055Z,1007.37
2022-12-25T08:21:07.968Z,1007.40
2022-12-25T08:22:07.957Z,1007.44
2022-12-25T08:23:07.949Z,1007.48
2022-12-25T08:24:07.956Z,1007.50
2022-12-25T08:25:07.916Z,1007.51
2022-12-25T08:26:08.003Z,1007.49
2022-12-25T08:27:07.898Z,1007.54
2022-12-25T08:28:07.876Z,1007.61
2022-12-25T08:29:07.891Z,1007.56
2022-12-25T08:30:08.056Z,1007.61
2022-12-25T08:31:07.955Z,1007.55
2022-12-25T08:32:07.847Z,1007.56
2022-12-25T08:33:07.837Z,1007.49
2022-12-25T08:34:07.864Z,1007.41
2022-12-25T08:35:07.817Z,1007.38
2022-12-25T08:36:07.951Z,1007.28
2022-12-25T08:37:07.806Z,1007.18
2022-12-25T08:38:07.883Z,1007.14
2022-12-25T08:39:07.781Z,1007.03
2022-12-25T08:40:07.801Z,1007.00
2022-12-25T08:41:07.767Z,1006.99
2022-12-25T08:42:07.760Z,1007.02
2022-12-25T08:43:07.722Z,1007.09
2022-12-25T08:44:07.773Z,1007.15
2022-12-25T08:45:07.710Z,1007.17
2022-12-25T08:46:07.797Z,1007.17
2022-12-25T08:47:07.694Z,1007.15
2022-12-25T08:48:07.699Z,1007.17
2022-12-25T08:49:07.670Z,1007.17
2022-12-25T08:50:07.701Z,1007.16
2022-12-25T08:51:07.640Z,1007.17
2022-12-25T08:52:07.734Z,1007.20
2022-12-25T08:53:07.626Z,1007.23
2022-12-25T08:54:07.649Z,1007.22
2022-12-25T08:55:07.598Z,1007.26
2022-12-25T08:56:07.608Z,1007.26
2022-12-25T08:57:07.581Z,1007.29
2022-12-25T08:58:07.574Z,1007.29
2022-12-25T08:59:07.572Z,1007.26
2022-12-25T09:00:07.961Z,1007.26
2022-12-25T09:01:07.587Z,1007.21
2022-12-25T09:02:07.711Z,1007.20
2022-12-25T09:03:07.598Z,1007.16
2022-12-25T09:04:07.598Z,1007.16
2022-12-25T09:05:07.487Z,1007.12
2022-12-25T09:06:07.493Z,1007.09
2022-12-25T09:07:07.463Z,1007.12
2022-12-25T09:08:07.540Z,1007.12
2022-12-25T09:09:07.491Z,1007.09
2022-12-25T09:10:07.491Z,1007.12
2022-12-25T09:11:07.434Z,1007.10
2022-12-25T09:12:07.483Z,1007.13
2022-12-25T09:13:07.417Z,1007.10
2022-12-25T09:14:07.507Z,1007.05
2022-12-25T09:15:07.406Z,1007.03
2022-12-25T09:16:07.553Z,1007.02
2022-12-25T09:17:07.363Z,1007.07
2022-12-25T09:18:07.436Z,1006.95
2022-12-25T09:19:07.355Z,1006.95
2022-12-25T09:20:07.381Z,1006.94
2022-12-25T09:21:07.342Z,1006.89
2022-12-25T09:22:07.419Z,1006.84
2022-12-25T09:23:13.230Z,1006.80
2022-12-25T09:24:08.459Z,1006.83
2022-12-25T09:25:07.287Z,1006.89
2022-12-25T09:26:07.321Z,1006.91
2022-12-25T09:27:07.258Z,1006.98
2022-12-25T09:28:07.300Z,1006.95
2022-12-25T09:29:07.267Z,1006.95
2022-12-25T09:30:07.218Z,1006.98
2022-12-25T09:31:07.242Z,1006.90
2022-12-25T09:32:07.255Z,1006.83
2022-12-25T09:33:07.210Z,1006.80
2022-12-25T09:34:07.231Z,1006.89
2022-12-25T09:35:07.200Z,1006.82
2022-12-25T09:36:07.214Z,1006.85
2022-12-25T09:37:07.153Z,1006.87
2022-12-25T09:38:07.160Z,1006.93
2022-12-25T09:39:07.131Z,1007.02
2022-12-25T09:40:07.239Z,1006.95
2022-12-25T09:41:07.112Z,1006.96
2022-12-25T09:42:07.101Z,1007.03
2022-12-25T09:43:07.090Z,1007.03
2022-12-25T09:44:07.128Z,1007.01
2022-12-25T09:45:07.079Z,1007.02
2022-12-25T09:46:08.853Z,1007.05
2022-12-25T09:47:07.064Z,1007.08
2022-12-25T09:48:07.164Z,1007.10
2022-12-25T09:49:07.029Z,1007.12
2022-12-25T09:50:07.117Z,1007.16
2022-12-25T09:51:07.001Z,1007.13
2022-12-25T09:52:06.988Z,1007.14
2022-12-25T09:53:06.989Z,1007.19
2022-12-25T09:54:07.025Z,1007.20
2022-12-25T09:55:06.968Z,1007.23
2022-12-25T09:56:07.095Z,1007.29
2022-12-25T09:57:06.963Z,1007.33
2022-12-25T09:58:06.964Z,1007.30
2022-12-25T09:59:06.926Z,1007.45
2022-12-25T10:00:06.966Z,1007.41
2022-12-25T10:01:06.990Z,1007.51
2022-12-25T10:02:06.932Z,1007.55
2022-12-25T10:03:07.107Z,1007.57
2022-12-25T10:04:07.607Z,1007.60
2022-12-25T10:05:06.884Z,1007.62
2022-12-25T10:06:06.944Z,1007.59
2022-12-25T10:07:06.869Z,1007.63
2022-12-25T10:08:06.999Z,1007.59
2022-12-25T10:09:06.850Z,1007.55
2022-12-25T10:10:06.909Z,1007.53
2022-12-25T10:11:06.795Z,1007.53
2022-12-25T10:12:06.808Z,1007.53
2022-12-25T10:13:06.769Z,1007.51
2022-12-25T10:14:06.776Z,1007.53
2022-12-25T10:15:06.814Z,1007.50
2022-12-25T10:16:06.894Z,1007.46
2022-12-25T10:17:06.729Z,1007.50
2022-12-25T10:18:06.805Z,1007.48
2022-12-25T10:19:06.708Z,1007.44
2022-12-25T10:20:06.902Z,1007.41
2022-12-25T10:21:12.684Z,1007.39
2022-12-25T10:22:07.763Z,1007.35
2022-12-25T10:23:06.669Z,1007.35
2022-12-25T10:24:06.797Z,1007.33
2022-12-25T10:25:06.648Z,1007.30
2022-12-25T10:26:06.640Z,1007.28
2022-12-25T10:27:06.619Z,1007.27
2022-12-25T10:28:06.683Z,1007.23
2022-12-25T10:29:06.600Z,1007.22
2022-12-25T10:30:06.750Z,1007.19
2022-12-25T10:31:06.626Z,1007.18
2022-12-25T10:32:06.725Z,1007.18
2022-12-25T10:33:07.525Z,1007.16
2022-12-25T10:34:06.589Z,1007.11
2022-12-25T10:35:06.633Z,1007.11
2022-12-25T10:36:06.573Z,1007.06
2022-12-25T10:37:06.578Z,1007.06
2022-12-25T10:38:06.623Z,1007.02
2022-12-25T10:39:06.498Z,1006.99
2022-12-25T10:40:06.591Z,1006.92
2022-12-25T10:41:06.497Z,1006.89
2022-12-25T10:42:06.568Z,1006.86
2022-12-25T10:43:06.451Z,1006.83
2022-12-25T10:44:07.163Z,1006.83
2022-12-25T10:45:06.442Z,1006.81
2022-12-25T10:46:06.459Z,1006.80
2022-12-25T10:47:06.427Z,1006.78
2022-12-25T10:48:07.739Z,1006.73
2022-12-25T10:49:06.390Z,1006.69
2022-12-25T10:50:06.464Z,1006.66
2022-12-25T10:51:06.376Z,1006.61
2022-12-25T10:52:06.351Z,1006.64
2022-12-25T10:53:06.343Z,1006.58
2022-12-25T10:54:06.333Z,1006.58
2022-12-25T10:55:06.333Z,1006.58
2022-12-25T10:56:06.364Z,1006.64
2022-12-25T10:57:06.310Z,1006.62
2022-12-25T10:58:06.625Z,1006.66
2022-12-25T10:59:06.284Z,1006.70
2022-12-25T11:00:06.858Z,1006.72
2022-12-25T11:01:06.258Z,1006.72
2022-12-25T11:02:06.316Z,1006.77
2022-12-25T11:03:06.425Z,1006.74
2022-12-25T11:04:06.330Z,1006.71
2022-12-25T11:05:06.243Z,1006.68
2022-12-25T11:06:06.246Z,1006.58
2022-12-25T11:07:06.208Z,1006.50
2022-12-25T11:08:06.189Z,1006.46
2022-12-25T11:09:06.167Z,1006.42
2022-12-25T11:10:06.343Z,1006.33
2022-12-25T11:11:06.583Z,1006.24
2022-12-25T11:12:06.157Z,1006.17
2022-12-25T11:13:06.140Z,1006.19
2022-12-25T11:14:06.118Z,1006.21
2022-12-25T11:15:06.155Z,1006.18
2022-12-25T11:16:06.209Z,1006.08
2022-12-25T11:17:06.095Z,1006.02
2022-12-25T11:18:06.107Z,1005.97
2022-12-25T11:19:06.133Z,1005.89
2022-12-25T11:20:06.073Z,1005.91
2022-12-25T11:21:06.057Z,1005.89
2022-12-25T11:22:06.096Z,1005.89
2022-12-25T11:23:06.019Z,1005.88
2022-12-25T11:24:06.027Z,1005.83
2022-12-25T11:25:06.024Z,1005.78
2022-12-25T11:26:06.137Z,1005.72
2022-12-25T11:27:05.988Z,1005.64
2022-12-25T11:28:05.986Z,1005.63
2022-12-25T11:29:06.060Z,1005.69
2022-12-25T11:30:08.872Z,1005.70
2022-12-25T11:31:07.018Z,1005.70
2022-12-25T11:32:05.934Z,1005.69
2022-12-25T11:33:05.956Z,1005.72
2022-12-25T11:34:05.917Z,1005.65
2022-12-25T11:35:05.900Z,1005.59
2022-12-25T11:36:06.220Z,1005.52
2022-12-25T11:37:05.872Z,1005.51
2022-12-25T11:38:05.925Z,1005.47
2022-12-25T11:39:05.851Z,1005.47
2022-12-25T11:40:05.908Z,1005.43
2022-12-25T11:41:05.872Z,1005.37
2022-12-25T11:42:05.869Z,1005.31
2022-12-25T11:43:08.175Z,1005.29
2022-12-25T11:44:05.813Z,1005.24
2022-12-25T11:45:05.798Z,1005.19
2022-12-25T11:46:05.837Z,1005.11
2022-12-25T11:47:05.826Z,1005.09
2022-12-25T11:48:05.766Z,1005.13
2022-12-25T11:49:05.743Z,1005.11
2022-12-25T11:50:05.794Z,1005.10
2022-12-25T11:51:05.772Z,1005.06
2022-12-25T11:52:05.715Z,1005.07
2022-12-25T11:53:05.702Z,1005.13
2022-12-25T11:54:05.731Z,1005.19
2022-12-25T11:55:05.687Z,1005.17
2022-12-25T11:56:05.724Z,1005.13
2022-12-25T11:57:05.665Z,1005.16
2022-12-25T11:58:05.651Z,1005.07
2022-12-25T11:59:05.638Z,1004.98
2022-12-25T12:00:05.635Z,1004.95
2022-12-25T12:01:05.624Z,1004.87
2022-12-25T12:02:05.670Z,1004.93
2022-12-25T12:03:05.630Z,1004.89
2022-12-25T12:04:05.605Z,1004.89
2022-12-25T12:05:05.557Z,1004.85